AEE218 LGAV-LICB
Flight info
| Callsign | AEE218 |
|---|---|
| Flight time | 1h 22m |
| Altitude | 36000 |
| Route | DDM DCT TRL UA145 LORNO DCT PESAR/N0447F350 DCT ABUKI DCT NOTRI |
| Aircraft | B737/M-SDE2E3FGHIRWXY/LB1 |
Departure
| Time | 2026-04-21 09:16 |
|---|---|
| Airport | Athens Eleftherios Venizelos International Airport (LGAV) |
Arrival
| Time | 2026-04-21 10:38 |
|---|---|
| Airport | Comiso Airport (LICB) |
| Time | Latitude | Longitude | Altitude | Speed | Heading |
|---|---|---|---|---|---|
| 2026-04-21 08:50 | 37.94003 | 23.95337 | 299 ft | 0 kts | 39° |
| 2026-04-21 09:07 | 37.93999 | 23.95333 | 300 ft | 4 kts | 39° |
| 2026-04-21 09:07 | 37.93979 | 23.95310 | 300 ft | 4 kts | 45° |
| 2026-04-21 09:07 | 37.93961 | 23.95285 | 299 ft | 4 kts | 58° |
| 2026-04-21 09:07 | 37.93952 | 23.95256 | 301 ft | 4 kts | 99° |
| 2026-04-21 09:08 | 37.93957 | 23.95240 | 300 ft | 1 kts | 126° |
| 2026-04-21 09:08 | 37.93958 | 23.95239 | 299 ft | 0 kts | 126° |
| 2026-04-21 09:11 | 37.93956 | 23.95242 | 301 ft | 4 kts | 126° |
| 2026-04-21 09:12 | 37.93931 | 23.95285 | 299 ft | 10 kts | 126° |
| 2026-04-21 09:12 | 37.93887 | 23.95362 | 301 ft | 12 kts | 129° |
| 2026-04-21 09:12 | 37.93859 | 23.95464 | 299 ft | 14 kts | 69° |
| 2026-04-21 09:12 | 37.93948 | 23.95563 | 296 ft | 21 kts | 36° |
| 2026-04-21 09:13 | 37.94069 | 23.95681 | 295 ft | 22 kts | 38° |
| 2026-04-21 09:13 | 37.94200 | 23.95804 | 297 ft | 27 kts | 37° |
| 2026-04-21 09:13 | 37.94344 | 23.95939 | 298 ft | 25 kts | 36° |
| 2026-04-21 09:13 | 37.94477 | 23.96063 | 298 ft | 23 kts | 36° |
| 2026-04-21 09:14 | 37.94624 | 23.96204 | 298 ft | 27 kts | 37° |
| 2026-04-21 09:14 | 37.94766 | 23.96340 | 299 ft | 25 kts | 37° |
| 2026-04-21 09:14 | 37.94904 | 23.96471 | 300 ft | 28 kts | 37° |
| 2026-04-21 09:14 | 37.95065 | 23.96625 | 301 ft | 22 kts | 37° |
| 2026-04-21 09:15 | 37.95189 | 23.96742 | 302 ft | 22 kts | 36° |
| 2026-04-21 09:15 | 37.95295 | 23.96851 | 303 ft | 11 kts | 57° |
| 2026-04-21 09:15 | 37.95292 | 23.96901 | 305 ft | 17 kts | 109° |
| 2026-04-21 09:15 | 37.95231 | 23.97027 | 309 ft | 17 kts | 141° |
| 2026-04-21 09:16 | 37.95155 | 23.97001 | 309 ft | 6 kts | 216° |
| 2026-04-21 09:16 | 37.95036 | 23.96882 | 308 ft | 64 kts | 217° |
| 2026-04-21 09:16 | 37.94388 | 23.96286 | 296 ft | 161 kts | 211° |
| 2026-04-21 09:16 | 37.93387 | 23.95320 | 1023 ft | 195 kts | 218° |
| 2026-04-21 09:17 | 37.92281 | 23.94224 | 2213 ft | 204 kts | 214° |
| 2026-04-21 09:17 | 37.90943 | 23.93357 | 2996 ft | 231 kts | 203° |
| 2026-04-21 09:17 | 37.89447 | 23.92453 | 3761 ft | 243 kts | 208° |
| 2026-04-21 09:17 | 37.87938 | 23.91454 | 4645 ft | 245 kts | 209° |
| 2026-04-21 09:18 | 37.86428 | 23.90440 | 5574 ft | 246 kts | 209° |
| 2026-04-21 09:18 | 37.84899 | 23.89406 | 6489 ft | 251 kts | 210° |
| 2026-04-21 09:18 | 37.83597 | 23.87886 | 7112 ft | 265 kts | 242° |
| 2026-04-21 09:18 | 37.82913 | 23.85693 | 7948 ft | 271 kts | 252° |
| 2026-04-21 09:19 | 37.82399 | 23.83388 | 8911 ft | 273 kts | 261° |
| 2026-04-21 09:19 | 37.82171 | 23.80990 | 9938 ft | 275 kts | 266° |
| 2026-04-21 09:19 | 37.82026 | 23.78537 | 10620 ft | 289 kts | 268° |
| 2026-04-21 09:19 | 37.81886 | 23.75865 | 10839 ft | 318 kts | 268° |
| 2026-04-21 09:20 | 37.81732 | 23.73012 | 11283 ft | 335 kts | 267° |
| 2026-04-21 09:20 | 37.81561 | 23.70048 | 12123 ft | 340 kts | 267° |
| 2026-04-21 09:20 | 37.81377 | 23.67062 | 13093 ft | 342 kts | 267° |
| 2026-04-21 09:20 | 37.81184 | 23.64056 | 14045 ft | 344 kts | 267° |
| 2026-04-21 09:21 | 37.80984 | 23.61022 | 14922 ft | 347 kts | 267° |
| 2026-04-21 09:21 | 37.80777 | 23.57961 | 15783 ft | 351 kts | 267° |
| 2026-04-21 09:21 | 37.80565 | 23.54858 | 16627 ft | 356 kts | 267° |
| 2026-04-21 09:21 | 37.80349 | 23.51723 | 17462 ft | 361 kts | 267° |
| 2026-04-21 09:22 | 37.80127 | 23.48539 | 18284 ft | 365 kts | 267° |
| 2026-04-21 09:22 | 37.79901 | 23.45313 | 19007 ft | 369 kts | 267° |
| 2026-04-21 09:22 | 37.79672 | 23.42063 | 19762 ft | 372 kts | 267° |
| 2026-04-21 09:22 | 37.79443 | 23.38836 | 20524 ft | 375 kts | 267° |
| 2026-04-21 09:23 | 37.79209 | 23.35540 | 21247 ft | 379 kts | 267° |
| 2026-04-21 09:23 | 37.78971 | 23.32202 | 21933 ft | 383 kts | 267° |
| 2026-04-21 09:23 | 37.78729 | 23.28826 | 22620 ft | 387 kts | 267° |
| 2026-04-21 09:23 | 37.78485 | 23.25424 | 23303 ft | 391 kts | 267° |
| 2026-04-21 09:24 | 37.78237 | 23.21992 | 23903 ft | 394 kts | 267° |
| 2026-04-21 09:24 | 37.77986 | 23.18530 | 24472 ft | 397 kts | 267° |
| 2026-04-21 09:24 | 37.77732 | 23.15042 | 25035 ft | 400 kts | 267° |
| 2026-04-21 09:24 | 37.77474 | 23.11527 | 25587 ft | 403 kts | 267° |
| 2026-04-21 09:25 | 37.77213 | 23.07975 | 26129 ft | 405 kts | 267° |
| 2026-04-21 09:25 | 37.76951 | 23.04423 | 26680 ft | 407 kts | 267° |
| 2026-04-21 09:25 | 37.76686 | 23.00846 | 27188 ft | 410 kts | 267° |
| 2026-04-21 09:25 | 37.76418 | 22.97242 | 27668 ft | 414 kts | 267° |
| 2026-04-21 09:26 | 37.76150 | 22.93645 | 28138 ft | 417 kts | 267° |
| 2026-04-21 09:26 | 37.75875 | 22.89983 | 28618 ft | 419 kts | 267° |
| 2026-04-21 09:26 | 37.75598 | 22.86304 | 29090 ft | 422 kts | 267° |
| 2026-04-21 09:26 | 37.75318 | 22.82600 | 29577 ft | 423 kts | 267° |
| 2026-04-21 09:27 | 37.75036 | 22.78896 | 30078 ft | 424 kts | 267° |
| 2026-04-21 09:27 | 37.74753 | 22.75198 | 30643 ft | 420 kts | 267° |
| 2026-04-21 09:27 | 37.74472 | 22.71541 | 31261 ft | 416 kts | 267° |
| 2026-04-21 09:27 | 37.74192 | 22.67913 | 31771 ft | 414 kts | 267° |
| 2026-04-21 09:28 | 37.73912 | 22.64281 | 32237 ft | 414 kts | 267° |
| 2026-04-21 09:28 | 37.73631 | 22.60663 | 32676 ft | 413 kts | 267° |
| 2026-04-21 09:28 | 37.73354 | 22.57098 | 33132 ft | 412 kts | 266° |
| 2026-04-21 09:28 | 37.73074 | 22.53508 | 33573 ft | 410 kts | 266° |
| 2026-04-21 09:29 | 37.72793 | 22.49921 | 34002 ft | 409 kts | 266° |
| 2026-04-21 09:29 | 37.72512 | 22.46351 | 34315 ft | 409 kts | 266° |
| 2026-04-21 09:29 | 37.72229 | 22.42780 | 34674 ft | 408 kts | 266° |
| 2026-04-21 09:29 | 37.71948 | 22.39225 | 35028 ft | 405 kts | 266° |
| 2026-04-21 09:30 | 37.71666 | 22.35681 | 35364 ft | 405 kts | 266° |
| 2026-04-21 09:30 | 37.71383 | 22.32149 | 35691 ft | 404 kts | 266° |
| 2026-04-21 09:30 | 37.71099 | 22.28615 | 35946 ft | 405 kts | 266° |
| 2026-04-21 09:30 | 37.70813 | 22.25056 | 35988 ft | 409 kts | 266° |
| 2026-04-21 09:31 | 37.70233 | 22.17889 | 36023 ft | 409 kts | 266° |
| 2026-04-21 09:31 | 37.69657 | 22.10854 | 36035 ft | 402 kts | 266° |
| 2026-04-21 09:32 | 37.69077 | 22.03811 | 36035 ft | 402 kts | 266° |
| 2026-04-21 09:32 | 37.68496 | 21.96788 | 36024 ft | 402 kts | 266° |
| 2026-04-21 09:33 | 37.67913 | 21.89805 | 36043 ft | 402 kts | 266° |
| 2026-04-21 09:33 | 37.67322 | 21.82775 | 36042 ft | 402 kts | 266° |
| 2026-04-21 09:34 | 37.66728 | 21.75756 | 36047 ft | 402 kts | 265° |
| 2026-04-21 09:34 | 37.66129 | 21.68729 | 36056 ft | 402 kts | 265° |
| 2026-04-21 09:35 | 37.65525 | 21.61694 | 36050 ft | 403 kts | 265° |
| 2026-04-21 09:35 | 37.64919 | 21.54696 | 36051 ft | 404 kts | 265° |
| 2026-04-21 09:36 | 37.64304 | 21.47636 | 36051 ft | 404 kts | 265° |
| 2026-04-21 09:36 | 37.63686 | 21.40589 | 36052 ft | 405 kts | 265° |
| 2026-04-21 09:37 | 37.63062 | 21.33523 | 36057 ft | 405 kts | 265° |
| 2026-04-21 09:37 | 37.62438 | 21.26505 | 36051 ft | 405 kts | 265° |
| 2026-04-21 09:38 | 37.61805 | 21.19440 | 36035 ft | 405 kts | 265° |
| 2026-04-21 09:38 | 37.61168 | 21.12381 | 36051 ft | 405 kts | 265° |
| 2026-04-21 09:39 | 37.60635 | 21.06503 | 36051 ft | 405 kts | 265° |
| 2026-04-21 09:39 | 37.59989 | 20.99429 | 36050 ft | 406 kts | 265° |
| 2026-04-21 09:40 | 37.59339 | 20.92350 | 36049 ft | 406 kts | 265° |
| 2026-04-21 09:40 | 37.58684 | 20.85272 | 36050 ft | 406 kts | 265° |
| 2026-04-21 09:41 | 37.58029 | 20.78236 | 36054 ft | 406 kts | 265° |
| 2026-04-21 09:41 | 37.57366 | 20.71160 | 36048 ft | 407 kts | 265° |
| 2026-04-21 09:42 | 37.56698 | 20.64085 | 36049 ft | 407 kts | 265° |
| 2026-04-21 09:42 | 37.56026 | 20.57007 | 36049 ft | 407 kts | 265° |
| 2026-04-21 09:43 | 37.55349 | 20.49920 | 36049 ft | 407 kts | 265° |
| 2026-04-21 09:43 | 37.54668 | 20.42844 | 36048 ft | 406 kts | 265° |
| 2026-04-21 09:44 | 37.53987 | 20.35806 | 36042 ft | 406 kts | 265° |
| 2026-04-21 09:44 | 37.53298 | 20.28734 | 36045 ft | 406 kts | 264° |
| 2026-04-21 09:45 | 37.52606 | 20.21677 | 36048 ft | 405 kts | 264° |
| 2026-04-21 09:45 | 37.51915 | 20.14668 | 36049 ft | 405 kts | 264° |
| 2026-04-21 09:46 | 37.51216 | 20.07623 | 36047 ft | 405 kts | 264° |
| 2026-04-21 09:46 | 37.50512 | 20.00571 | 36045 ft | 405 kts | 264° |
| 2026-04-21 09:47 | 37.49803 | 19.93513 | 36049 ft | 405 kts | 264° |
| 2026-04-21 09:47 | 37.49090 | 19.86466 | 36047 ft | 406 kts | 264° |
| 2026-04-21 09:48 | 37.48378 | 19.79465 | 36042 ft | 406 kts | 264° |
| 2026-04-21 09:48 | 37.47657 | 19.72413 | 36040 ft | 406 kts | 264° |
| 2026-04-21 09:49 | 37.46932 | 19.65368 | 36043 ft | 406 kts | 264° |
| 2026-04-21 09:49 | 37.46202 | 19.58318 | 36020 ft | 406 kts | 264° |
| 2026-04-21 09:50 | 37.45592 | 19.52462 | 36036 ft | 406 kts | 264° |
| 2026-04-21 09:50 | 37.44730 | 19.44225 | 36033 ft | 406 kts | 264° |
| 2026-04-21 09:51 | 37.43988 | 19.37181 | 36038 ft | 406 kts | 264° |
| 2026-04-21 09:51 | 37.43242 | 19.30143 | 36038 ft | 406 kts | 264° |
| 2026-04-21 09:52 | 37.42495 | 19.23140 | 36038 ft | 406 kts | 264° |
| 2026-04-21 09:52 | 37.41740 | 19.16087 | 36043 ft | 406 kts | 264° |
| 2026-04-21 09:53 | 37.40981 | 19.09044 | 36031 ft | 407 kts | 264° |
| 2026-04-21 09:53 | 37.40219 | 19.01986 | 36035 ft | 407 kts | 265° |
| 2026-04-21 09:54 | 37.40245 | 18.94915 | 36043 ft | 404 kts | 275° |
| 2026-04-21 09:54 | 37.40713 | 18.87860 | 36034 ft | 405 kts | 275° |
| 2026-04-21 09:55 | 37.41168 | 18.80795 | 36030 ft | 405 kts | 275° |
| 2026-04-21 09:55 | 37.41601 | 18.73763 | 36029 ft | 405 kts | 275° |
| 2026-04-21 09:56 | 37.42025 | 18.66687 | 36030 ft | 406 kts | 275° |
| 2026-04-21 09:56 | 37.42444 | 18.59597 | 36029 ft | 406 kts | 275° |
| 2026-04-21 09:57 | 37.42860 | 18.52495 | 36030 ft | 406 kts | 275° |
| 2026-04-21 09:57 | 37.43270 | 18.45404 | 36026 ft | 406 kts | 275° |
| 2026-04-21 09:58 | 37.43674 | 18.38354 | 36018 ft | 407 kts | 275° |
| 2026-04-21 09:58 | 37.44077 | 18.31257 | 36016 ft | 406 kts | 275° |
| 2026-04-21 09:59 | 37.44475 | 18.24159 | 36024 ft | 406 kts | 275° |
| 2026-04-21 09:59 | 37.44869 | 18.17051 | 36025 ft | 407 kts | 275° |
| 2026-04-21 10:00 | 37.45259 | 18.09947 | 36025 ft | 407 kts | 275° |
| 2026-04-21 10:00 | 37.45646 | 18.02829 | 36024 ft | 407 kts | 275° |
| 2026-04-21 10:01 | 37.46026 | 17.95750 | 36019 ft | 407 kts | 275° |
| 2026-04-21 10:01 | 37.46404 | 17.88633 | 36019 ft | 407 kts | 275° |
| 2026-04-21 10:02 | 37.46962 | 17.77966 | 36020 ft | 407 kts | 275° |
| 2026-04-21 10:03 | 37.47330 | 17.70836 | 36015 ft | 407 kts | 275° |
| 2026-04-21 10:03 | 37.47690 | 17.63758 | 36021 ft | 408 kts | 275° |
| 2026-04-21 10:04 | 37.48049 | 17.56635 | 36015 ft | 408 kts | 275° |
| 2026-04-21 10:04 | 37.48404 | 17.49496 | 36017 ft | 408 kts | 275° |
| 2026-04-21 10:05 | 37.48756 | 17.42346 | 36013 ft | 408 kts | 275° |
| 2026-04-21 10:05 | 37.49100 | 17.35254 | 36008 ft | 409 kts | 275° |
| 2026-04-21 10:06 | 37.49444 | 17.28093 | 36007 ft | 409 kts | 275° |
| 2026-04-21 10:06 | 37.49783 | 17.20941 | 36009 ft | 409 kts | 275° |
| 2026-04-21 10:07 | 37.50100 | 17.13780 | 36007 ft | 409 kts | 274° |
| 2026-04-21 10:07 | 37.50298 | 17.06655 | 36005 ft | 410 kts | 273° |
| 2026-04-21 10:08 | 37.50470 | 16.99476 | 35999 ft | 410 kts | 273° |
| 2026-04-21 10:08 | 37.50648 | 16.92291 | 36004 ft | 410 kts | 273° |
| 2026-04-21 10:09 | 37.50830 | 16.85117 | 36003 ft | 410 kts | 273° |
| 2026-04-21 10:09 | 37.51008 | 16.77984 | 36003 ft | 410 kts | 273° |
| 2026-04-21 10:10 | 37.51184 | 16.70808 | 36003 ft | 410 kts | 273° |
| 2026-04-21 10:10 | 37.51355 | 16.63631 | 36004 ft | 410 kts | 273° |
| 2026-04-21 10:11 | 37.51521 | 16.56456 | 35997 ft | 410 kts | 273° |
| 2026-04-21 10:11 | 37.51684 | 16.49278 | 35997 ft | 410 kts | 273° |
| 2026-04-21 10:12 | 37.51842 | 16.42093 | 35995 ft | 410 kts | 273° |
| 2026-04-21 10:12 | 37.51995 | 16.34913 | 35995 ft | 410 kts | 273° |
| 2026-04-21 10:13 | 37.52143 | 16.27793 | 35998 ft | 409 kts | 273° |
| 2026-04-21 10:13 | 37.52288 | 16.20623 | 35978 ft | 409 kts | 273° |
| 2026-04-21 10:14 | 37.52428 | 16.13464 | 35990 ft | 409 kts | 273° |
| 2026-04-21 10:14 | 37.52565 | 16.06286 | 35537 ft | 415 kts | 273° |
| 2026-04-21 10:14 | 37.52633 | 16.02659 | 34943 ft | 414 kts | 273° |
| 2026-04-21 10:15 | 37.52699 | 15.99034 | 34240 ft | 414 kts | 273° |
| 2026-04-21 10:15 | 37.52763 | 15.95401 | 33445 ft | 415 kts | 273° |
| 2026-04-21 10:15 | 37.52827 | 15.91783 | 32898 ft | 410 kts | 273° |
| 2026-04-21 10:15 | 37.52888 | 15.88217 | 32319 ft | 406 kts | 272° |
| 2026-04-21 10:16 | 37.52947 | 15.84726 | 31806 ft | 401 kts | 272° |
| 2026-04-21 10:16 | 37.53005 | 15.81233 | 31277 ft | 397 kts | 272° |
| 2026-04-21 10:16 | 37.53062 | 15.77776 | 30758 ft | 393 kts | 272° |
| 2026-04-21 10:16 | 37.53118 | 15.74344 | 30253 ft | 389 kts | 272° |
| 2026-04-21 10:17 | 37.53172 | 15.70947 | 29701 ft | 386 kts | 272° |
| 2026-04-21 10:17 | 37.53225 | 15.67584 | 29151 ft | 381 kts | 272° |
| 2026-04-21 10:17 | 37.53276 | 15.64263 | 28621 ft | 377 kts | 272° |
| 2026-04-21 10:17 | 37.53325 | 15.60977 | 28096 ft | 372 kts | 272° |
| 2026-04-21 10:18 | 37.53373 | 15.57739 | 27567 ft | 368 kts | 272° |
| 2026-04-21 10:18 | 37.53268 | 15.54530 | 27029 ft | 367 kts | 264° |
| 2026-04-21 10:18 | 37.52876 | 15.51349 | 26476 ft | 365 kts | 263° |
| 2026-04-21 10:18 | 37.52452 | 15.48211 | 25949 ft | 362 kts | 263° |
| 2026-04-21 10:19 | 37.52025 | 15.45093 | 25441 ft | 360 kts | 263° |
| 2026-04-21 10:19 | 37.51610 | 15.42036 | 24948 ft | 357 kts | 263° |
| 2026-04-21 10:19 | 37.51197 | 15.38958 | 24451 ft | 355 kts | 263° |
| 2026-04-21 10:19 | 37.50790 | 15.35899 | 23963 ft | 353 kts | 263° |
| 2026-04-21 10:20 | 37.50388 | 15.32860 | 23449 ft | 352 kts | 263° |
| 2026-04-21 10:20 | 37.49986 | 15.29815 | 22875 ft | 350 kts | 263° |
| 2026-04-21 10:20 | 37.49589 | 15.26812 | 22361 ft | 346 kts | 263° |
| 2026-04-21 10:20 | 37.49196 | 15.23838 | 21871 ft | 343 kts | 263° |
| 2026-04-21 10:21 | 37.48805 | 15.20889 | 21389 ft | 340 kts | 263° |
| 2026-04-21 10:21 | 37.48417 | 15.17968 | 20898 ft | 337 kts | 263° |
| 2026-04-21 10:21 | 37.48032 | 15.15071 | 20414 ft | 334 kts | 263° |
| 2026-04-21 10:21 | 37.47649 | 15.12192 | 19938 ft | 332 kts | 263° |
| 2026-04-21 10:22 | 37.47267 | 15.09328 | 19468 ft | 329 kts | 262° |
| 2026-04-21 10:22 | 37.46894 | 15.06531 | 19011 ft | 327 kts | 262° |
| 2026-04-21 10:22 | 37.46515 | 15.03707 | 18540 ft | 325 kts | 262° |
| 2026-04-21 10:22 | 37.46138 | 15.00903 | 18045 ft | 324 kts | 262° |
| 2026-04-21 10:23 | 37.45476 | 14.98197 | 17503 ft | 327 kts | 244° |
| 2026-04-21 10:23 | 37.44134 | 14.95888 | 17032 ft | 329 kts | 228° |
| 2026-04-21 10:23 | 37.42301 | 14.94139 | 16551 ft | 331 kts | 217° |
| 2026-04-21 10:23 | 37.40371 | 14.92631 | 16066 ft | 330 kts | 215° |
| 2026-04-21 10:24 | 37.38414 | 14.91129 | 15580 ft | 328 kts | 216° |
| 2026-04-21 10:24 | 37.36479 | 14.89619 | 15111 ft | 326 kts | 216° |
| 2026-04-21 10:24 | 37.34564 | 14.88105 | 14649 ft | 325 kts | 216° |
| 2026-04-21 10:24 | 37.32662 | 14.86592 | 14178 ft | 323 kts | 216° |
| 2026-04-21 10:25 | 37.30758 | 14.85074 | 13684 ft | 322 kts | 216° |
| 2026-04-21 10:25 | 37.28867 | 14.83566 | 13150 ft | 321 kts | 216° |
| 2026-04-21 10:25 | 37.26981 | 14.82062 | 12659 ft | 319 kts | 216° |
| 2026-04-21 10:25 | 37.25109 | 14.80571 | 12179 ft | 318 kts | 216° |
| 2026-04-21 10:26 | 37.23246 | 14.79086 | 11707 ft | 316 kts | 216° |
| 2026-04-21 10:26 | 37.21394 | 14.77612 | 11243 ft | 314 kts | 216° |
| 2026-04-21 10:26 | 37.19571 | 14.76162 | 10774 ft | 313 kts | 216° |
| 2026-04-21 10:26 | 37.17731 | 14.74700 | 10390 ft | 310 kts | 215° |
| 2026-04-21 10:27 | 37.15949 | 14.73286 | 10238 ft | 298 kts | 215° |
| 2026-04-21 10:27 | 37.14230 | 14.71923 | 10098 ft | 286 kts | 216° |
| 2026-04-21 10:27 | 37.12585 | 14.70620 | 9947 ft | 274 kts | 216° |
| 2026-04-21 10:27 | 37.10972 | 14.69339 | 9584 ft | 274 kts | 216° |
| 2026-04-21 10:28 | 37.09365 | 14.68063 | 9236 ft | 273 kts | 216° |
| 2026-04-21 10:28 | 37.08303 | 14.67220 | 9005 ft | 272 kts | 216° |
| 2026-04-21 10:28 | 37.06711 | 14.65957 | 8673 ft | 270 kts | 216° |
| 2026-04-21 10:28 | 37.05125 | 14.64699 | 8330 ft | 269 kts | 216° |
| 2026-04-21 10:29 | 37.03564 | 14.63465 | 8164 ft | 260 kts | 216° |
| 2026-04-21 10:29 | 37.02062 | 14.62278 | 8043 ft | 250 kts | 216° |
| 2026-04-21 10:29 | 37.00614 | 14.61135 | 7926 ft | 241 kts | 216° |
| 2026-04-21 10:29 | 36.99234 | 14.60027 | 7833 ft | 230 kts | 221° |
| 2026-04-21 10:30 | 36.98292 | 14.58506 | 7638 ft | 218 kts | 249° |
| 2026-04-21 10:30 | 36.97791 | 14.56762 | 7413 ft | 215 kts | 254° |
| 2026-04-21 10:30 | 36.97363 | 14.54983 | 7169 ft | 213 kts | 255° |
| 2026-04-21 10:30 | 36.96948 | 14.53232 | 6955 ft | 207 kts | 254° |
| 2026-04-21 10:31 | 36.96542 | 14.51538 | 6707 ft | 200 kts | 254° |
| 2026-04-21 10:31 | 36.96146 | 14.49899 | 6471 ft | 193 kts | 254° |
| 2026-04-21 10:31 | 36.95760 | 14.48319 | 6188 ft | 188 kts | 254° |
| 2026-04-21 10:31 | 36.95379 | 14.46768 | 5918 ft | 184 kts | 253° |
| 2026-04-21 10:32 | 36.95008 | 14.45259 | 5677 ft | 179 kts | 253° |
| 2026-04-21 10:32 | 36.94642 | 14.43779 | 5479 ft | 178 kts | 254° |
| 2026-04-21 10:32 | 36.94274 | 14.42289 | 5263 ft | 180 kts | 254° |
| 2026-04-21 10:32 | 36.93851 | 14.40839 | 5060 ft | 181 kts | 241° |
| 2026-04-21 10:33 | 36.93004 | 14.39686 | 4885 ft | 181 kts | 218° |
| 2026-04-21 10:33 | 36.91862 | 14.39079 | 4690 ft | 178 kts | 195° |
| 2026-04-21 10:33 | 36.90632 | 14.39094 | 4462 ft | 177 kts | 171° |
| 2026-04-21 10:33 | 36.89521 | 14.39725 | 4257 ft | 178 kts | 147° |
| 2026-04-21 10:34 | 36.88700 | 14.40885 | 4071 ft | 182 kts | 121° |
| 2026-04-21 10:34 | 36.88327 | 14.42406 | 3881 ft | 186 kts | 94° |
| 2026-04-21 10:34 | 36.88598 | 14.43952 | 3752 ft | 182 kts | 52° |
| 2026-04-21 10:34 | 36.89346 | 14.45260 | 3530 ft | 190 kts | 55° |
| 2026-04-21 10:35 | 36.90103 | 14.46587 | 3321 ft | 187 kts | 51° |
| 2026-04-21 10:35 | 36.90913 | 14.47854 | 3076 ft | 185 kts | 49° |
| 2026-04-21 10:35 | 36.91734 | 14.49091 | 2830 ft | 184 kts | 49° |
| 2026-04-21 10:35 | 36.92549 | 14.50318 | 2571 ft | 183 kts | 50° |
| 2026-04-21 10:36 | 36.93349 | 14.51521 | 2367 ft | 177 kts | 51° |
| 2026-04-21 10:36 | 36.94108 | 14.52659 | 2117 ft | 167 kts | 51° |
| 2026-04-21 10:36 | 36.94832 | 14.53749 | 1907 ft | 159 kts | 52° |
| 2026-04-21 10:36 | 36.95526 | 14.54792 | 1705 ft | 157 kts | 52° |
| 2026-04-21 10:37 | 36.96206 | 14.55814 | 1500 ft | 148 kts | 52° |
| 2026-04-21 10:37 | 36.96857 | 14.56795 | 1325 ft | 146 kts | 52° |
| 2026-04-21 10:37 | 36.97501 | 14.57765 | 1123 ft | 145 kts | 51° |
| 2026-04-21 10:37 | 36.98141 | 14.58738 | 1028 ft | 144 kts | 51° |
| 2026-04-21 10:38 | 36.98796 | 14.59714 | 805 ft | 143 kts | 50° |
| 2026-04-21 10:38 | 36.99407 | 14.60636 | 722 ft | 128 kts | 50° |
| 2026-04-21 10:38 | 36.99820 | 14.61226 | 718 ft | 50 kts | 48° |
| 2026-04-21 10:38 | 36.99949 | 14.61392 | 720 ft | 15 kts | 32° |
| 2026-04-21 10:39 | 37.00041 | 14.61456 | 720 ft | 15 kts | 22° |
| 2026-04-21 10:39 | 37.00137 | 14.61469 | 721 ft | 6 kts | 333° |
| 2026-04-21 10:39 | 37.00150 | 14.61433 | 720 ft | 5 kts | 276° |
| 2026-04-21 10:39 | 37.00107 | 14.61350 | 722 ft | 14 kts | 230° |
| 2026-04-21 10:40 | 37.00047 | 14.61262 | 722 ft | 13 kts | 230° |
| 2026-04-21 10:40 | 36.99988 | 14.61175 | 720 ft | 13 kts | 230° |
| 2026-04-21 10:40 | 36.99929 | 14.61089 | 722 ft | 13 kts | 230° |
| 2026-04-21 10:40 | 36.99874 | 14.61004 | 720 ft | 12 kts | 231° |
| 2026-04-21 10:41 | 36.99814 | 14.60912 | 721 ft | 15 kts | 230° |
| 2026-04-21 10:41 | 36.99748 | 14.60813 | 722 ft | 10 kts | 230° |
| 2026-04-21 10:41 | 36.99743 | 14.60779 | 723 ft | 4 kts | 295° |
| 2026-04-21 10:41 | 36.99759 | 14.60758 | 720 ft | 0 kts | 319° |
| 2026-04-21 10:42 | 36.99768 | 14.60749 | 720 ft | 3 kts | 322° |
| 2026-04-21 10:42 | 36.99770 | 14.60747 | 720 ft | 0 kts | 322° |